sensor_id;sensor_type;location;lat;lon;timestamp;P1;durP1;ratioP1;P2;durP2;ratioP2
51312;SDS011;37397;53.226;10.400;2022-09-06T00:00:56;6.00;;;3.30;;
51312;SDS011;37397;53.226;10.400;2022-09-06T00:03:23;6.28;;;3.42;;
51312;SDS011;37397;53.226;10.400;2022-09-06T00:05:53;6.38;;;3.47;;
51312;SDS011;37397;53.226;10.400;2022-09-06T00:08:20;5.75;;;3.47;;
51312;SDS011;37397;53.226;10.400;2022-09-06T00:10:46;5.15;;;3.67;;
51312;SDS011;37397;53.226;10.400;2022-09-06T00:13:13;6.38;;;3.08;;
51312;SDS011;37397;53.226;10.400;2022-09-06T00:15:39;6.22;;;3.40;;
51312;SDS011;37397;53.226;10.400;2022-09-06T00:18:06;5.57;;;3.30;;
51312;SDS011;37397;53.226;10.400;2022-09-06T00:20:33;3.97;;;2.85;;
51312;SDS011;37397;53.226;10.400;2022-09-06T00:23:02;5.43;;;3.10;;
51312;SDS011;37397;53.226;10.400;2022-09-06T00:25:30;5.40;;;3.20;;
51312;SDS011;37397;53.226;10.400;2022-09-06T00:28:04;7.43;;;3.28;;
51312;SDS011;37397;53.226;10.400;2022-09-06T00:30:31;8.07;;;3.45;;
51312;SDS011;37397;53.226;10.400;2022-09-06T00:32:59;6.05;;;2.97;;
51312;SDS011;37397;53.226;10.400;2022-09-06T00:35:26;5.38;;;3.33;;
51312;SDS011;37397;53.226;10.400;2022-09-06T00:37:57;6.03;;;2.97;;
51312;SDS011;37397;53.226;10.400;2022-09-06T00:40:26;7.03;;;3.13;;
51312;SDS011;37397;53.226;10.400;2022-09-06T00:42:55;5.38;;;3.22;;
51312;SDS011;37397;53.226;10.400;2022-09-06T00:45:23;5.78;;;2.90;;
51312;SDS011;37397;53.226;10.400;2022-09-06T00:47:52;5.22;;;3.00;;
51312;SDS011;37397;53.226;10.400;2022-09-06T00:50:18;5.35;;;3.20;;
51312;SDS011;37397;53.226;10.400;2022-09-06T00:52:45;4.95;;;2.95;;
51312;SDS011;37397;53.226;10.400;2022-09-06T00:55:15;6.38;;;3.53;;
51312;SDS011;37397;53.226;10.400;2022-09-06T00:57:42;5.68;;;3.47;;
51312;SDS011;37397;53.226;10.400;2022-09-06T01:00:09;6.97;;;3.30;;
51312;SDS011;37397;53.226;10.400;2022-09-06T01:02:36;5.90;;;3.15;;
51312;SDS011;37397;53.226;10.400;2022-09-06T01:05:03;5.25;;;3.10;;
51312;SDS011;37397;53.226;10.400;2022-09-06T01:10:54;6.78;;;3.42;;
51312;SDS011;37397;53.226;10.400;2022-09-06T01:13:47;5.00;;;3.05;;
51312;SDS011;37397;53.226;10.400;2022-09-06T01:16:32;5.00;;;3.13;;
51312;SDS011;37397;53.226;10.400;2022-09-06T01:19:21;9.63;;;3.47;;
51312;SDS011;37397;53.226;10.400;2022-09-06T01:25:03;5.70;;;3.30;;
51312;SDS011;37397;53.226;10.400;2022-09-06T01:28:06;6.50;;;3.28;;
51312;SDS011;37397;53.226;10.400;2022-09-06T01:31:23;7.68;;;3.33;;
51312;SDS011;37397;53.226;10.400;2022-09-06T01:36:31;5.10;;;3.40;;
51312;SDS011;37397;53.226;10.400;2022-09-06T01:39:29;7.25;;;3.40;;
51312;SDS011;37397;53.226;10.400;2022-09-06T01:41:59;7.53;;;3.35;;
51312;SDS011;37397;53.226;10.400;2022-09-06T01:44:32;9.57;;;3.42;;
51312;SDS011;37397;53.226;10.400;2022-09-06T01:47:05;5.75;;;3.40;;
51312;SDS011;37397;53.226;10.400;2022-09-06T01:49:54;5.05;;;3.00;;
51312;SDS011;37397;53.226;10.400;2022-09-06T01:52:32;7.22;;;3.58;;
51312;SDS011;37397;53.226;10.400;2022-09-06T02:00:22;7.18;;;3.40;;
51312;SDS011;37397;53.226;10.400;2022-09-06T02:02:58;6.82;;;3.13;;
51312;SDS011;37397;53.226;10.400;2022-09-06T02:05:46;7.20;;;3.67;;
51312;SDS011;37397;53.226;10.400;2022-09-06T02:08:25;6.50;;;2.95;;
51312;SDS011;37397;53.226;10.400;2022-09-06T02:10:58;6.78;;;3.08;;
51312;SDS011;37397;53.226;10.400;2022-09-06T02:13:30;6.10;;;3.03;;
51312;SDS011;37397;53.226;10.400;2022-09-06T02:16:01;7.90;;;2.95;;
51312;SDS011;37397;53.226;10.400;2022-09-06T02:18:42;5.63;;;3.03;;
51312;SDS011;37397;53.226;10.400;2022-09-06T02:21:13;6.10;;;3.00;;
51312;SDS011;37397;53.226;10.400;2022-09-06T02:23:43;4.65;;;2.88;;
51312;SDS011;37397;53.226;10.400;2022-09-06T02:26:22;5.82;;;3.25;;
51312;SDS011;37397;53.226;10.400;2022-09-06T02:28:52;6.03;;;3.00;;
51312;SDS011;37397;53.226;10.400;2022-09-06T02:31:40;5.93;;;3.10;;
51312;SDS011;37397;53.226;10.400;2022-09-06T02:34:14;5.97;;;3.00;;
51312;SDS011;37397;53.226;10.400;2022-09-06T02:36:43;5.20;;;3.20;;
51312;SDS011;37397;53.226;10.400;2022-09-06T02:39:10;5.75;;;3.20;;
51312;SDS011;37397;53.226;10.400;2022-09-06T02:41:38;4.75;;;2.78;;
51312;SDS011;37397;53.226;10.400;2022-09-06T02:44:08;6.63;;;3.03;;
51312;SDS011;37397;53.226;10.400;2022-09-06T02:46:35;5.20;;;2.72;;
51312;SDS011;37397;53.226;10.400;2022-09-06T02:49:01;4.80;;;2.70;;
51312;SDS011;37397;53.226;10.400;2022-09-06T02:51:28;5.70;;;2.97;;
51312;SDS011;37397;53.226;10.400;2022-09-06T02:53:55;5.47;;;2.92;;
51312;SDS011;37397;53.226;10.400;2022-09-06T02:56:22;7.65;;;2.88;;
51312;SDS011;37397;53.226;10.400;2022-09-06T02:58:48;6.32;;;3.00;;
51312;SDS011;37397;53.226;10.400;2022-09-06T03:01:15;5.97;;;2.55;;
51312;SDS011;37397;53.226;10.400;2022-09-06T03:03:41;5.22;;;2.55;;
51312;SDS011;37397;53.226;10.400;2022-09-06T03:06:08;4.10;;;2.60;;
51312;SDS011;37397;53.226;10.400;2022-09-06T03:08:34;6.18;;;3.03;;
51312;SDS011;37397;53.226;10.400;2022-09-06T03:11:01;5.75;;;2.45;;
51312;SDS011;37397;53.226;10.400;2022-09-06T03:13:28;7.82;;;2.72;;
51312;SDS011;37397;53.226;10.400;2022-09-06T03:15:55;5.63;;;2.65;;
51312;SDS011;37397;53.226;10.400;2022-09-06T03:18:24;6.53;;;2.83;;
51312;SDS011;37397;53.226;10.400;2022-09-06T03:20:52;4.95;;;2.90;;
51312;SDS011;37397;53.226;10.400;2022-09-06T03:23:20;5.60;;;2.65;;
51312;SDS011;37397;53.226;10.400;2022-09-06T03:25:48;5.30;;;2.47;;
51312;SDS011;37397;53.226;10.400;2022-09-06T03:28:15;6.30;;;2.92;;
51312;SDS011;37397;53.226;10.400;2022-09-06T03:30:44;3.92;;;2.40;;
51312;SDS011;37397;53.226;10.400;2022-09-06T03:33:11;6.00;;;2.60;;
51312;SDS011;37397;53.226;10.400;2022-09-06T03:35:38;5.93;;;2.42;;
51312;SDS011;37397;53.226;10.400;2022-09-06T03:38:04;4.45;;;2.53;;
51312;SDS011;37397;53.226;10.400;2022-09-06T03:40:31;5.03;;;2.58;;
51312;SDS011;37397;53.226;10.400;2022-09-06T03:42:57;8.38;;;2.20;;
51312;SDS011;37397;53.226;10.400;2022-09-06T03:45:24;6.00;;;2.53;;
51312;SDS011;37397;53.226;10.400;2022-09-06T03:47:50;5.93;;;2.30;;
51312;SDS011;37397;53.226;10.400;2022-09-06T03:50:17;3.95;;;2.13;;
51312;SDS011;37397;53.226;10.400;2022-09-06T03:52:43;6.22;;;2.60;;
51312;SDS011;37397;53.226;10.400;2022-09-06T03:55:10;4.90;;;2.28;;
51312;SDS011;37397;53.226;10.400;2022-09-06T03:57:37;4.50;;;2.38;;
51312;SDS011;37397;53.226;10.400;2022-09-06T04:00:03;7.05;;;2.50;;
51312;SDS011;37397;53.226;10.400;2022-09-06T04:02:36;5.13;;;2.00;;
51312;SDS011;37397;53.226;10.400;2022-09-06T04:05:03;5.30;;;2.40;;
51312;SDS011;37397;53.226;10.400;2022-09-06T04:07:29;6.97;;;2.17;;
51312;SDS011;37397;53.226;10.400;2022-09-06T04:09:56;5.32;;;2.28;;
51312;SDS011;37397;53.226;10.400;2022-09-06T04:12:22;3.53;;;1.90;;
51312;SDS011;37397;53.226;10.400;2022-09-06T04:14:49;4.53;;;1.80;;
51312;SDS011;37397;53.226;10.400;2022-09-06T04:17:15;3.65;;;2.20;;
51312;SDS011;37397;53.226;10.400;2022-09-06T04:19:42;5.18;;;1.92;;
51312;SDS011;37397;53.226;10.400;2022-09-06T04:22:08;3.40;;;2.00;;
51312;SDS011;37397;53.226;10.400;2022-09-06T04:24:35;4.03;;;1.95;;
51312;SDS011;37397;53.226;10.400;2022-09-06T04:27:01;4.22;;;2.30;;
51312;SDS011;37397;53.226;10.400;2022-09-06T04:29:28;4.13;;;2.13;;
51312;SDS011;37397;53.226;10.400;2022-09-06T04:31:54;3.53;;;2.28;;
51312;SDS011;37397;53.226;10.400;2022-09-06T04:34:21;2.65;;;1.80;;
51312;SDS011;37397;53.226;10.400;2022-09-06T04:36:47;5.22;;;2.25;;
51312;SDS011;37397;53.226;10.400;2022-09-06T04:39:14;3.45;;;2.17;;
51312;SDS011;37397;53.226;10.400;2022-09-06T04:41:40;4.13;;;1.90;;
51312;SDS011;37397;53.226;10.400;2022-09-06T04:44:07;5.80;;;2.08;;
51312;SDS011;37397;53.226;10.400;2022-09-06T04:46:34;7.38;;;1.90;;
51312;SDS011;37397;53.226;10.400;2022-09-06T04:49:01;5.50;;;1.70;;
51312;SDS011;37397;53.226;10.400;2022-09-06T04:51:27;3.25;;;1.90;;
51312;SDS011;37397;53.226;10.400;2022-09-06T04:53:54;3.67;;;1.67;;
51312;SDS011;37397;53.226;10.400;2022-09-06T04:56:21;3.35;;;1.75;;
51312;SDS011;37397;53.226;10.400;2022-09-06T04:58:49;4.07;;;1.70;;
51312;SDS011;37397;53.226;10.400;2022-09-06T05:01:17;5.82;;;1.80;;
51312;SDS011;37397;53.226;10.400;2022-09-06T05:03:44;2.55;;;1.35;;
51312;SDS011;37397;53.226;10.400;2022-09-06T05:06:12;3.78;;;1.80;;
51312;SDS011;37397;53.226;10.400;2022-09-06T05:08:43;4.70;;;2.03;;
51312;SDS011;37397;53.226;10.400;2022-09-06T05:11:10;4.40;;;1.98;;
51312;SDS011;37397;53.226;10.400;2022-09-06T05:13:36;2.20;;;1.58;;
51312;SDS011;37397;53.226;10.400;2022-09-06T05:16:04;3.08;;;1.83;;
51312;SDS011;37397;53.226;10.400;2022-09-06T05:18:32;2.65;;;1.65;;
51312;SDS011;37397;53.226;10.400;2022-09-06T05:20:59;3.17;;;1.60;;
51312;SDS011;37397;53.226;10.400;2022-09-06T05:23:26;3.83;;;1.65;;
51312;SDS011;37397;53.226;10.400;2022-09-06T05:25:53;3.60;;;1.80;;
51312;SDS011;37397;53.226;10.400;2022-09-06T05:28:20;4.88;;;1.98;;
51312;SDS011;37397;53.226;10.400;2022-09-06T05:30:46;3.92;;;1.67;;
51312;SDS011;37397;53.226;10.400;2022-09-06T05:33:17;4.20;;;1.70;;
51312;SDS011;37397;53.226;10.400;2022-09-06T05:35:45;4.45;;;1.80;;
51312;SDS011;37397;53.226;10.400;2022-09-06T05:38:11;3.78;;;1.80;;
51312;SDS011;37397;53.226;10.400;2022-09-06T05:40:38;4.72;;;1.65;;
51312;SDS011;37397;53.226;10.400;2022-09-06T05:43:05;2.72;;;1.63;;
51312;SDS011;37397;53.226;10.400;2022-09-06T05:45:31;6.28;;;1.80;;
51312;SDS011;37397;53.226;10.400;2022-09-06T05:47:58;4.07;;;1.70;;
51312;SDS011;37397;53.226;10.400;2022-09-06T05:50:24;5.47;;;1.92;;
51312;SDS011;37397;53.226;10.400;2022-09-06T05:52:52;3.05;;;1.60;;
51312;SDS011;37397;53.226;10.400;2022-09-06T05:55:19;5.30;;;1.80;;
51312;SDS011;37397;53.226;10.400;2022-09-06T05:57:45;2.92;;;1.60;;
51312;SDS011;37397;53.226;10.400;2022-09-06T06:00:12;5.72;;;1.80;;
51312;SDS011;37397;53.226;10.400;2022-09-06T06:02:39;4.07;;;1.88;;
51312;SDS011;37397;53.226;10.400;2022-09-06T06:05:05;5.05;;;1.80;;
51312;SDS011;37397;53.226;10.400;2022-09-06T06:07:33;4.05;;;1.85;;
51312;SDS011;37397;53.226;10.400;2022-09-06T06:09:59;5.93;;;1.83;;
51312;SDS011;37397;53.226;10.400;2022-09-06T06:12:26;6.25;;;1.90;;
51312;SDS011;37397;53.226;10.400;2022-09-06T06:14:53;1.88;;;1.50;;
51312;SDS011;37397;53.226;10.400;2022-09-06T06:17:19;3.90;;;1.63;;
51312;SDS011;37397;53.226;10.400;2022-09-06T06:19:46;3.55;;;1.80;;
51312;SDS011;37397;53.226;10.400;2022-09-06T06:22:12;4.47;;;2.05;;
51312;SDS011;37397;53.226;10.400;2022-09-06T06:24:39;2.78;;;1.50;;
51312;SDS011;37397;53.226;10.400;2022-09-06T06:27:05;3.42;;;1.60;;
51312;SDS011;37397;53.226;10.400;2022-09-06T06:29:32;5.72;;;1.63;;
51312;SDS011;37397;53.226;10.400;2022-09-06T06:31:58;3.08;;;1.63;;
51312;SDS011;37397;53.226;10.400;2022-09-06T06:34:25;4.88;;;1.70;;
51312;SDS011;37397;53.226;10.400;2022-09-06T06:36:51;2.58;;;1.67;;
51312;SDS011;37397;53.226;10.400;2022-09-06T06:39:18;4.30;;;1.70;;
51312;SDS011;37397;53.226;10.400;2022-09-06T06:41:44;3.38;;;1.58;;
51312;SDS011;37397;53.226;10.400;2022-09-06T06:44:25;3.88;;;1.50;;
51312;SDS011;37397;53.226;10.400;2022-09-06T06:46:53;7.82;;;2.00;;
51312;SDS011;37397;53.226;10.400;2022-09-06T06:49:23;3.65;;;2.00;;
51312;SDS011;37397;53.226;10.400;2022-09-06T06:51:50;2.67;;;1.63;;
51312;SDS011;37397;53.226;10.400;2022-09-06T06:54:16;3.70;;;1.85;;
51312;SDS011;37397;53.226;10.400;2022-09-06T06:56:42;3.83;;;1.60;;
51312;SDS011;37397;53.226;10.400;2022-09-06T06:59:10;4.97;;;1.63;;
51312;SDS011;37397;53.226;10.400;2022-09-06T07:01:37;4.35;;;1.65;;
51312;SDS011;37397;53.226;10.400;2022-09-06T07:04:04;2.78;;;1.33;;
51312;SDS011;37397;53.226;10.400;2022-09-06T07:06:38;4.55;;;1.67;;
51312;SDS011;37397;53.226;10.400;2022-09-06T07:09:31;3.58;;;1.80;;
51312;SDS011;37397;53.226;10.400;2022-09-06T07:12:17;7.38;;;1.67;;
51312;SDS011;37397;53.226;10.400;2022-09-06T07:14:44;3.75;;;1.50;;
51312;SDS011;37397;53.226;10.400;2022-09-06T07:17:10;2.60;;;1.58;;
51312;SDS011;37397;53.226;10.400;2022-09-06T07:19:37;3.13;;;1.58;;
51312;SDS011;37397;53.226;10.400;2022-09-06T07:22:23;4.15;;;1.80;;
51312;SDS011;37397;53.226;10.400;2022-09-06T07:24:50;6.43;;;1.70;;
51312;SDS011;37397;53.226;10.400;2022-09-06T07:27:16;3.17;;;1.50;;
51312;SDS011;37397;53.226;10.400;2022-09-06T07:30:03;3.50;;;1.73;;
51312;SDS011;37397;53.226;10.400;2022-09-06T07:32:29;5.70;;;1.63;;
51312;SDS011;37397;53.226;10.400;2022-09-06T07:34:59;3.30;;;1.65;;
51312;SDS011;37397;53.226;10.400;2022-09-06T07:37:25;4.85;;;1.65;;
51312;SDS011;37397;53.226;10.400;2022-09-06T07:39:52;4.00;;;1.73;;
51312;SDS011;37397;53.226;10.400;2022-09-06T07:42:19;5.22;;;2.03;;
51312;SDS011;37397;53.226;10.400;2022-09-06T07:44:45;2.97;;;1.80;;
51312;SDS011;37397;53.226;10.400;2022-09-06T07:47:11;4.90;;;1.60;;
51312;SDS011;37397;53.226;10.400;2022-09-06T07:50:00;4.10;;;2.00;;
51312;SDS011;37397;53.226;10.400;2022-09-06T07:52:47;4.10;;;1.60;;
51312;SDS011;37397;53.226;10.400;2022-09-06T07:55:34;5.68;;;2.03;;
51312;SDS011;37397;53.226;10.400;2022-09-06T07:58:00;4.60;;;1.92;;
51312;SDS011;37397;53.226;10.400;2022-09-06T08:00:27;3.03;;;1.67;;
51312;SDS011;37397;53.226;10.400;2022-09-06T08:02:53;5.28;;;1.73;;
51312;SDS011;37397;53.226;10.400;2022-09-06T08:05:20;4.00;;;1.70;;
51312;SDS011;37397;53.226;10.400;2022-09-06T08:08:06;4.63;;;1.77;;
51312;SDS011;37397;53.226;10.400;2022-09-06T08:10:53;3.75;;;1.95;;
51312;SDS011;37397;53.226;10.400;2022-09-06T08:13:19;7.15;;;2.05;;
51312;SDS011;37397;53.226;10.400;2022-09-06T08:15:46;2.30;;;1.73;;
51312;SDS011;37397;53.226;10.400;2022-09-06T08:18:12;2.97;;;1.60;;
51312;SDS011;37397;53.226;10.400;2022-09-06T08:20:39;4.20;;;2.00;;
51312;SDS011;37397;53.226;10.400;2022-09-06T08:23:09;4.70;;;1.80;;
51312;SDS011;37397;53.226;10.400;2022-09-06T08:25:35;5.07;;;1.80;;
51312;SDS011;37397;53.226;10.400;2022-09-06T08:28:02;4.78;;;2.10;;
51312;SDS011;37397;53.226;10.400;2022-09-06T08:30:28;5.30;;;1.83;;
51312;SDS011;37397;53.226;10.400;2022-09-06T08:32:55;4.97;;;1.90;;
51312;SDS011;37397;53.226;10.400;2022-09-06T08:35:22;3.97;;;1.90;;
51312;SDS011;37397;53.226;10.400;2022-09-06T08:37:48;4.85;;;2.10;;
51312;SDS011;37397;53.226;10.400;2022-09-06T08:40:16;3.47;;;2.08;;
51312;SDS011;37397;53.226;10.400;2022-09-06T08:42:46;5.47;;;1.70;;
51312;SDS011;37397;53.226;10.400;2022-09-06T08:45:15;4.15;;;1.55;;
51312;SDS011;37397;53.226;10.400;2022-09-06T08:47:46;4.23;;;1.70;;
51312;SDS011;37397;53.226;10.400;2022-09-06T08:50:15;4.03;;;2.00;;
51312;SDS011;37397;53.226;10.400;2022-09-06T08:58:31;4.80;;;1.90;;
51312;SDS011;37397;53.226;10.400;2022-09-06T09:01:11;2.58;;;1.65;;
51312;SDS011;37397;53.226;10.400;2022-09-06T09:03:42;4.00;;;1.90;;
51312;SDS011;37397;53.226;10.400;2022-09-06T09:06:10;5.55;;;1.85;;
51312;SDS011;37397;53.226;10.400;2022-09-06T09:11:18;10.10;;;2.20;;
51312;SDS011;37397;53.226;10.400;2022-09-06T09:16:24;4.03;;;1.90;;
51312;SDS011;37397;53.226;10.400;2022-09-06T09:18:51;11.30;;;3.35;;
51312;SDS011;37397;53.226;10.400;2022-09-06T09:21:22;9.20;;;4.32;;
51312;SDS011;37397;53.226;10.400;2022-09-06T09:23:56;14.55;;;3.60;;
51312;SDS011;37397;53.226;10.400;2022-09-06T09:26:27;12.80;;;4.85;;
51312;SDS011;37397;53.226;10.400;2022-09-06T09:29:06;15.38;;;4.55;;
51312;SDS011;37397;53.226;10.400;2022-09-06T09:31:40;11.13;;;3.75;;
51312;SDS011;37397;53.226;10.400;2022-09-06T09:34:40;7.80;;;3.67;;
51312;SDS011;37397;53.226;10.400;2022-09-06T09:37:12;9.10;;;3.88;;
51312;SDS011;37397;53.226;10.400;2022-09-06T09:40:12;6.15;;;3.65;;
51312;SDS011;37397;53.226;10.400;2022-09-06T09:42:40;8.20;;;3.20;;
51312;SDS011;37397;53.226;10.400;2022-09-06T09:47:46;10.93;;;3.97;;
51312;SDS011;37397;53.226;10.400;2022-09-06T09:52:54;9.38;;;4.22;;
51312;SDS011;37397;53.226;10.400;2022-09-06T09:55:22;10.48;;;3.97;;
51312;SDS011;37397;53.226;10.400;2022-09-06T09:57:51;9.25;;;4.05;;
51312;SDS011;37397;53.226;10.400;2022-09-06T10:03:36;7.50;;;4.00;;
51312;SDS011;37397;53.226;10.400;2022-09-06T10:06:24;7.53;;;3.63;;
51312;SDS011;37397;53.226;10.400;2022-09-06T10:09:19;6.90;;;3.20;;
51312;SDS011;37397;53.226;10.400;2022-09-06T10:11:52;7.68;;;2.75;;
51312;SDS011;37397;53.226;10.400;2022-09-06T10:14:31;6.20;;;2.67;;
51312;SDS011;37397;53.226;10.400;2022-09-06T10:17:16;11.50;;;3.03;;
51312;SDS011;37397;53.226;10.400;2022-09-06T10:22:30;5.07;;;2.53;;
51312;SDS011;37397;53.226;10.400;2022-09-06T10:25:13;9.32;;;3.05;;
51312;SDS011;37397;53.226;10.400;2022-09-06T10:31:07;4.22;;;2.40;;
51312;SDS011;37397;53.226;10.400;2022-09-06T10:33:59;5.43;;;2.70;;
51312;SDS011;37397;53.226;10.400;2022-09-06T10:39:34;8.07;;;2.70;;
51312;SDS011;37397;53.226;10.400;2022-09-06T10:50:41;7.28;;;2.80;;
51312;SDS011;37397;53.226;10.400;2022-09-06T10:53:15;4.63;;;2.67;;
51312;SDS011;37397;53.226;10.400;2022-09-06T10:56:00;4.97;;;2.97;;
51312;SDS011;37397;53.226;10.400;2022-09-06T10:58:31;5.47;;;2.90;;
51312;SDS011;37397;53.226;10.400;2022-09-06T11:01:31;5.65;;;2.90;;
51312;SDS011;37397;53.226;10.400;2022-09-06T11:04:07;6.65;;;3.25;;
51312;SDS011;37397;53.226;10.400;2022-09-06T11:06:44;6.43;;;2.90;;
51312;SDS011;37397;53.226;10.400;2022-09-06T11:09:28;6.60;;;2.92;;
51312;SDS011;37397;53.226;10.400;2022-09-06T11:12:07;5.78;;;2.83;;
51312;SDS011;37397;53.226;10.400;2022-09-06T11:14:39;5.93;;;3.03;;
51312;SDS011;37397;53.226;10.400;2022-09-06T11:20:02;7.22;;;3.40;;
51312;SDS011;37397;53.226;10.400;2022-09-06T11:22:55;7.43;;;2.92;;
51312;SDS011;37397;53.226;10.400;2022-09-06T11:25:52;9.63;;;3.00;;
51312;SDS011;37397;53.226;10.400;2022-09-06T11:28:34;5.55;;;2.88;;
51312;SDS011;37397;53.226;10.400;2022-09-06T11:31:09;5.35;;;2.85;;
51312;SDS011;37397;53.226;10.400;2022-09-06T11:34:03;5.13;;;3.13;;
51312;SDS011;37397;53.226;10.400;2022-09-06T11:36:39;5.05;;;2.80;;
51312;SDS011;37397;53.226;10.400;2022-09-06T11:39:11;7.38;;;3.10;;
51312;SDS011;37397;53.226;10.400;2022-09-06T11:41:39;7.72;;;2.90;;
51312;SDS011;37397;53.226;10.400;2022-09-06T11:44:08;5.60;;;2.83;;
51312;SDS011;37397;53.226;10.400;2022-09-06T11:46:55;6.18;;;3.35;;
51312;SDS011;37397;53.226;10.400;2022-09-06T11:51:57;5.60;;;2.90;;
51312;SDS011;37397;53.226;10.400;2022-09-06T11:54:25;6.22;;;2.67;;
51312;SDS011;37397;53.226;10.400;2022-09-06T11:59:34;6.10;;;2.97;;
51312;SDS011;37397;53.226;10.400;2022-09-06T12:02:27;5.85;;;3.08;;
51312;SDS011;37397;53.226;10.400;2022-09-06T12:07:33;7.00;;;3.10;;
51312;SDS011;37397;53.226;10.400;2022-09-06T12:10:40;9.70;;;3.53;;
51312;SDS011;37397;53.226;10.400;2022-09-06T12:12:57;5.18;;;3.10;;
51312;SDS011;37397;53.226;10.400;2022-09-06T12:17:55;4.90;;;2.80;;
51312;SDS011;37397;53.226;10.400;2022-09-06T12:26:42;6.07;;;3.10;;
51312;SDS011;37397;53.226;10.400;2022-09-06T12:29:08;7.03;;;3.28;;
51312;SDS011;37397;53.226;10.400;2022-09-06T12:31:37;10.27;;;3.35;;
51312;SDS011;37397;53.226;10.400;2022-09-06T12:34:24;5.75;;;2.95;;
51312;SDS011;37397;53.226;10.400;2022-09-06T12:36:55;9.18;;;3.08;;
51312;SDS011;37397;53.226;10.400;2022-09-06T12:39:24;10.88;;;3.60;;
51312;SDS011;37397;53.226;10.400;2022-09-06T12:42:05;7.30;;;3.25;;
51312;SDS011;37397;53.226;10.400;2022-09-06T12:44:37;7.25;;;3.00;;
51312;SDS011;37397;53.226;10.400;2022-09-06T12:47:12;8.15;;;3.30;;
51312;SDS011;37397;53.226;10.400;2022-09-06T12:49:44;6.30;;;3.25;;
51312;SDS011;37397;53.226;10.400;2022-09-06T12:52:14;4.55;;;2.80;;
51312;SDS011;37397;53.226;10.400;2022-09-06T12:54:48;5.88;;;3.10;;
51312;SDS011;37397;53.226;10.400;2022-09-06T12:57:20;9.40;;;3.10;;
51312;SDS011;37397;53.226;10.400;2022-09-06T13:02:24;6.67;;;3.10;;
51312;SDS011;37397;53.226;10.400;2022-09-06T13:04:57;5.10;;;3.35;;
51312;SDS011;37397;53.226;10.400;2022-09-06T13:07:27;5.75;;;2.78;;
51312;SDS011;37397;53.226;10.400;2022-09-06T13:09:56;5.10;;;2.72;;
51312;SDS011;37397;53.226;10.400;2022-09-06T13:14:55;6.82;;;3.08;;
51312;SDS011;37397;53.226;10.400;2022-09-06T13:17:25;6.10;;;3.35;;
51312;SDS011;37397;53.226;10.400;2022-09-06T13:19:53;5.05;;;2.92;;
51312;SDS011;37397;53.226;10.400;2022-09-06T13:25:49;4.40;;;2.65;;
51312;SDS011;37397;53.226;10.400;2022-09-06T13:28:30;6.22;;;3.47;;
51312;SDS011;37397;53.226;10.400;2022-09-06T13:31:11;8.43;;;3.45;;
51312;SDS011;37397;53.226;10.400;2022-09-06T13:33:55;8.93;;;3.33;;
51312;SDS011;37397;53.226;10.400;2022-09-06T13:36:23;6.22;;;3.10;;
51312;SDS011;37397;53.226;10.400;2022-09-06T13:38:53;7.32;;;3.13;;
51312;SDS011;37397;53.226;10.400;2022-09-06T13:44:00;8.15;;;3.10;;
51312;SDS011;37397;53.226;10.400;2022-09-06T13:46:30;7.63;;;3.63;;
51312;SDS011;37397;53.226;10.400;2022-09-06T13:48:58;5.18;;;3.00;;
51312;SDS011;37397;53.226;10.400;2022-09-06T13:51:25;8.57;;;3.58;;
51312;SDS011;37397;53.226;10.400;2022-09-06T13:54:02;8.15;;;3.00;;
51312;SDS011;37397;53.226;10.400;2022-09-06T13:56:33;5.25;;;3.08;;
51312;SDS011;37397;53.226;10.400;2022-09-06T13:59:00;7.80;;;3.65;;
51312;SDS011;37397;53.226;10.400;2022-09-06T14:01:27;6.97;;;3.17;;
51312;SDS011;37397;53.226;10.400;2022-09-06T14:03:54;5.88;;;3.05;;
51312;SDS011;37397;53.226;10.400;2022-09-06T14:06:21;9.30;;;3.58;;
51312;SDS011;37397;53.226;10.400;2022-09-06T14:08:48;8.15;;;3.38;;
51312;SDS011;37397;53.226;10.400;2022-09-06T14:11:32;5.18;;;3.50;;
51312;SDS011;37397;53.226;10.400;2022-09-06T14:13:59;6.80;;;3.42;;
51312;SDS011;37397;53.226;10.400;2022-09-06T14:16:26;5.25;;;3.20;;
51312;SDS011;37397;53.226;10.400;2022-09-06T14:18:52;6.50;;;3.20;;
51312;SDS011;37397;53.226;10.400;2022-09-06T14:21:19;8.77;;;3.75;;
51312;SDS011;37397;53.226;10.400;2022-09-06T14:23:49;7.18;;;3.08;;
51312;SDS011;37397;53.226;10.400;2022-09-06T14:26:17;6.35;;;3.40;;
51312;SDS011;37397;53.226;10.400;2022-09-06T14:28:44;8.52;;;3.38;;
51312;SDS011;37397;53.226;10.400;2022-09-06T14:31:11;6.32;;;3.58;;
51312;SDS011;37397;53.226;10.400;2022-09-06T14:33:40;6.70;;;3.28;;
51312;SDS011;37397;53.226;10.400;2022-09-06T14:36:08;5.60;;;3.03;;
51312;SDS011;37397;53.226;10.400;2022-09-06T14:38:37;6.90;;;3.38;;
51312;SDS011;37397;53.226;10.400;2022-09-06T14:41:06;8.57;;;3.92;;
51312;SDS011;37397;53.226;10.400;2022-09-06T14:43:33;8.57;;;3.58;;
51312;SDS011;37397;53.226;10.400;2022-09-06T14:46:04;6.45;;;3.33;;
51312;SDS011;37397;53.226;10.400;2022-09-06T14:48:33;11.48;;;4.30;;
51312;SDS011;37397;53.226;10.400;2022-09-06T14:51:08;9.43;;;3.50;;
51312;SDS011;37397;53.226;10.400;2022-09-06T14:53:47;8.70;;;3.45;;
51312;SDS011;37397;53.226;10.400;2022-09-06T14:56:17;9.15;;;3.85;;
51312;SDS011;37397;53.226;10.400;2022-09-06T14:58:44;6.68;;;3.88;;
51312;SDS011;37397;53.226;10.400;2022-09-06T15:01:16;10.45;;;4.07;;
51312;SDS011;37397;53.226;10.400;2022-09-06T15:03:47;7.15;;;3.70;;
51312;SDS011;37397;53.226;10.400;2022-09-06T15:06:18;8.23;;;3.90;;
51312;SDS011;37397;53.226;10.400;2022-09-06T15:08:46;8.10;;;4.05;;
51312;SDS011;37397;53.226;10.400;2022-09-06T15:11:14;9.77;;;4.32;;
51312;SDS011;37397;53.226;10.400;2022-09-06T15:13:55;7.70;;;4.00;;
51312;SDS011;37397;53.226;10.400;2022-09-06T15:16:22;10.02;;;4.38;;
51312;SDS011;37397;53.226;10.400;2022-09-06T15:18:48;7.30;;;4.30;;
51312;SDS011;37397;53.226;10.400;2022-09-06T15:21:15;10.20;;;4.75;;
51312;SDS011;37397;53.226;10.400;2022-09-06T15:23:42;8.32;;;4.45;;
51312;SDS011;37397;53.226;10.400;2022-09-06T15:26:09;7.70;;;4.47;;
51312;SDS011;37397;53.226;10.400;2022-09-06T15:28:37;6.97;;;3.85;;
51312;SDS011;37397;53.226;10.400;2022-09-06T15:31:05;8.50;;;4.47;;
51312;SDS011;37397;53.226;10.400;2022-09-06T15:33:33;7.88;;;4.20;;
51312;SDS011;37397;53.226;10.400;2022-09-06T15:36:01;6.13;;;3.80;;
51312;SDS011;37397;53.226;10.400;2022-09-06T15:41:11;8.27;;;4.38;;
51312;SDS011;37397;53.226;10.400;2022-09-06T15:43:44;10.55;;;4.28;;
51312;SDS011;37397;53.226;10.400;2022-09-06T15:46:13;9.52;;;4.88;;
51312;SDS011;37397;53.226;10.400;2022-09-06T15:48:44;9.55;;;4.28;;
51312;SDS011;37397;53.226;10.400;2022-09-06T15:51:18;9.80;;;4.25;;
51312;SDS011;37397;53.226;10.400;2022-09-06T15:53:47;9.00;;;4.63;;
51312;SDS011;37397;53.226;10.400;2022-09-06T15:56:14;7.88;;;4.15;;
51312;SDS011;37397;53.226;10.400;2022-09-06T15:58:42;8.80;;;4.70;;
51312;SDS011;37397;53.226;10.400;2022-09-06T16:01:15;11.65;;;4.60;;
51312;SDS011;37397;53.226;10.400;2022-09-06T16:03:44;12.18;;;4.88;;
51312;SDS011;37397;53.226;10.400;2022-09-06T16:06:18;11.10;;;5.72;;
51312;SDS011;37397;53.226;10.400;2022-09-06T16:09:00;7.05;;;5.00;;
51312;SDS011;37397;53.226;10.400;2022-09-06T16:11:32;10.65;;;5.32;;
51312;SDS011;37397;53.226;10.400;2022-09-06T16:14:05;9.63;;;4.93;;
51312;SDS011;37397;53.226;10.400;2022-09-06T16:16:34;12.50;;;5.18;;
51312;SDS011;37397;53.226;10.400;2022-09-06T16:19:02;11.02;;;4.68;;
51312;SDS011;37397;53.226;10.400;2022-09-06T16:21:30;10.85;;;4.55;;